sensor_id;sensor_type;location;lat;lon;timestamp;pressure;altitude;pressure_sealevel;temperature;humidity
42771;BME280;28426;42.872;25.314;2023-05-08T00:00:20;97065.75;;;13.28;51.28
42771;BME280;28426;42.872;25.314;2023-05-08T00:02:51;97070.31;;;13.28;51.98
42771;BME280;28426;42.872;25.314;2023-05-08T00:05:25;97072.56;;;13.24;51.86
42771;BME280;28426;42.872;25.314;2023-05-08T00:07:56;97071.09;;;13.21;51.71
42771;BME280;28426;42.872;25.314;2023-05-08T00:10:28;97064.53;;;13.17;51.98
42771;BME280;28426;42.872;25.314;2023-05-08T00:12:59;97065.13;;;13.19;52.00
42771;BME280;28426;42.872;25.314;2023-05-08T00:15:30;97065.72;;;13.15;51.79
42771;BME280;28426;42.872;25.314;2023-05-08T00:18:01;97062.25;;;13.14;52.14
42771;BME280;28426;42.872;25.314;2023-05-08T00:20:34;97062.44;;;13.13;52.31
42771;BME280;28426;42.872;25.314;2023-05-08T00:23:05;97067.38;;;13.09;52.54
42771;BME280;28426;42.872;25.314;2023-05-08T00:25:36;97070.66;;;13.04;52.72
42771;BME280;28426;42.872;25.314;2023-05-08T00:28:07;97068.59;;;13.00;52.85
42771;BME280;28426;42.872;25.314;2023-05-08T00:30:39;97072.69;;;12.95;52.64
42771;BME280;28426;42.872;25.314;2023-05-08T00:33:09;97075.16;;;12.90;52.71
42771;BME280;28426;42.872;25.314;2023-05-08T00:35:43;97074.91;;;12.85;52.97
42771;BME280;28426;42.872;25.314;2023-05-08T00:38:14;97067.50;;;12.80;53.35
42771;BME280;28426;42.872;25.314;2023-05-08T00:40:45;97070.75;;;12.76;53.64
42771;BME280;28426;42.872;25.314;2023-05-08T00:43:16;97073.22;;;12.71;53.49
42771;BME280;28426;42.872;25.314;2023-05-08T00:45:52;97060.00;;;12.62;53.63
42771;BME280;28426;42.872;25.314;2023-05-08T00:48:24;97075.06;;;12.63;53.56
42771;BME280;28426;42.872;25.314;2023-05-08T00:51:03;97071.91;;;12.60;53.83
42771;BME280;28426;42.872;25.314;2023-05-08T00:53:36;97065.91;;;12.51;53.76
42771;BME280;28426;42.872;25.314;2023-05-08T00:56:09;97071.47;;;12.49;53.88
42771;BME280;28426;42.872;25.314;2023-05-08T00:58:41;97073.94;;;12.51;54.03
42771;BME280;28426;42.872;25.314;2023-05-08T01:01:13;97078.66;;;12.49;54.16
42771;BME280;28426;42.872;25.314;2023-05-08T01:03:45;97072.06;;;12.45;54.17
42771;BME280;28426;42.872;25.314;2023-05-08T01:06:19;97075.13;;;12.41;54.20
42771;BME280;28426;42.872;25.314;2023-05-08T01:08:49;97081.25;;;12.35;54.53
42771;BME280;28426;42.872;25.314;2023-05-08T01:11:24;97080.22;;;12.29;54.70
42771;BME280;28426;42.872;25.314;2023-05-08T01:14:06;97083.09;;;12.28;54.89
42771;BME280;28426;42.872;25.314;2023-05-08T01:16:44;97087.19;;;12.24;54.75
42771;BME280;28426;42.872;25.314;2023-05-08T01:19:34;97087.56;;;12.21;55.17
42771;BME280;28426;42.872;25.314;2023-05-08T01:22:31;97085.69;;;12.14;55.55
42771;BME280;28426;42.872;25.314;2023-05-08T01:25:26;97085.44;;;12.09;55.40
42771;BME280;28426;42.872;25.314;2023-05-08T01:28:27;97078.34;;;12.01;55.87
42771;BME280;28426;42.872;25.314;2023-05-08T01:31:08;97080.97;;;11.95;55.53
42771;BME280;28426;42.872;25.314;2023-05-08T01:33:47;97085.66;;;11.86;55.81
42771;BME280;28426;42.872;25.314;2023-05-08T01:36:24;97086.63;;;11.78;55.99
42771;BME280;28426;42.872;25.314;2023-05-08T01:39:07;97082.69;;;11.74;56.21
42771;BME280;28426;42.872;25.314;2023-05-08T01:41:40;97081.78;;;11.67;56.52
42771;BME280;28426;42.872;25.314;2023-05-08T01:44:15;97090.94;;;11.57;57.76
42771;BME280;28426;42.872;25.314;2023-05-08T01:46:49;97083.44;;;11.46;57.34
42771;BME280;28426;42.872;25.314;2023-05-08T01:49:26;97083.59;;;11.37;57.72
42771;BME280;28426;42.872;25.314;2023-05-08T01:52:02;97088.66;;;11.32;57.45
42771;BME280;28426;42.872;25.314;2023-05-08T01:54:40;97085.72;;;11.27;58.09
42771;BME280;28426;42.872;25.314;2023-05-08T01:57:13;97080.31;;;11.20;58.60
42771;BME280;28426;42.872;25.314;2023-05-08T01:59:46;97086.25;;;11.16;59.07
42771;BME280;28426;42.872;25.314;2023-05-08T02:02:19;97079.63;;;11.11;58.63
42771;BME280;28426;42.872;25.314;2023-05-08T02:04:54;97072.34;;;11.05;58.75
42771;BME280;28426;42.872;25.314;2023-05-08T02:07:26;97075.84;;;11.06;59.16
42771;BME280;28426;42.872;25.314;2023-05-08T02:09:58;97075.22;;;11.04;59.16
42771;BME280;28426;42.872;25.314;2023-05-08T02:12:33;97062.19;;;10.94;59.34
42771;BME280;28426;42.872;25.314;2023-05-08T02:15:08;97078.28;;;11.01;59.45
42771;BME280;28426;42.872;25.314;2023-05-08T02:17:42;97077.44;;;11.00;59.38
42771;BME280;28426;42.872;25.314;2023-05-08T02:20:17;97070.44;;;10.99;59.55
42771;BME280;28426;42.872;25.314;2023-05-08T02:22:50;97077.44;;;11.00;59.65
42771;BME280;28426;42.872;25.314;2023-05-08T02:25:21;97071.28;;;10.99;59.58
42771;BME280;28426;42.872;25.314;2023-05-08T02:27:53;97077.44;;;11.00;59.79
42771;BME280;28426;42.872;25.314;2023-05-08T02:30:25;97078.28;;;11.01;60.10
42771;BME280;28426;42.872;25.314;2023-05-08T02:32:57;97072.50;;;10.97;60.50
42771;BME280;28426;42.872;25.314;2023-05-08T02:35:33;97070.81;;;10.96;60.38
42771;BME280;28426;42.872;25.314;2023-05-08T02:38:05;97068.53;;;10.93;60.42
42771;BME280;28426;42.872;25.314;2023-05-08T02:40:41;97064.59;;;10.89;60.49
42771;BME280;28426;42.872;25.314;2023-05-08T02:43:14;97071.13;;;10.86;60.39
42771;BME280;28426;42.872;25.314;2023-05-08T02:45:48;97067.00;;;10.83;60.64
42771;BME280;28426;42.872;25.314;2023-05-08T02:48:21;97061.00;;;10.81;61.65
42771;BME280;28426;42.872;25.314;2023-05-08T02:51:01;97063.03;;;10.79;61.14
42771;BME280;28426;42.872;25.314;2023-05-08T02:53:36;97065.44;;;10.74;61.14
42771;BME280;28426;42.872;25.314;2023-05-08T02:56:17;97066.91;;;10.77;61.11
42771;BME280;28426;42.872;25.314;2023-05-08T02:59:05;97069.78;;;10.75;61.18
42771;BME280;28426;42.872;25.314;2023-05-08T03:01:44;97071.97;;;10.71;61.29
42771;BME280;28426;42.872;25.314;2023-05-08T03:04:23;97073.81;;;10.71;61.25
42771;BME280;28426;42.872;25.314;2023-05-08T03:06:59;97078.50;;;10.69;61.63
42771;BME280;28426;42.872;25.314;2023-05-08T03:09:37;97081.16;;;10.69;61.48
42771;BME280;28426;42.872;25.314;2023-05-08T03:12:13;97076.22;;;10.66;61.58
42771;BME280;28426;42.872;25.314;2023-05-08T03:14:53;97075.56;;;10.64;61.80
42771;BME280;28426;42.872;25.314;2023-05-08T03:17:25;97076.59;;;10.63;61.94
42771;BME280;28426;42.872;25.314;2023-05-08T03:20:02;97076.59;;;10.63;62.29
42771;BME280;28426;42.872;25.314;2023-05-08T03:22:37;97074.69;;;10.56;62.27
42771;BME280;28426;42.872;25.314;2023-05-08T03:25:11;97084.34;;;10.57;62.29
42771;BME280;28426;42.872;25.314;2023-05-08T03:27:44;97085.72;;;10.53;62.76
42771;BME280;28426;42.872;25.314;2023-05-08T03:30:16;97088.19;;;10.55;62.81
42771;BME280;28426;42.872;25.314;2023-05-08T03:32:57;97084.06;;;10.52;63.04
42771;BME280;28426;42.872;25.314;2023-05-08T03:35:29;97088.75;;;10.50;62.89
42771;BME280;28426;42.872;25.314;2023-05-08T03:38:04;97073.13;;;10.47;63.17
42771;BME280;28426;42.872;25.314;2023-05-08T03:40:35;97082.13;;;10.46;63.06
42771;BME280;28426;42.872;25.314;2023-05-08T03:43:10;97084.16;;;10.44;63.06
42771;BME280;28426;42.872;25.314;2023-05-08T03:45:41;97082.31;;;10.44;63.03
42771;BME280;28426;42.872;25.314;2023-05-08T03:48:13;97093.63;;;10.46;63.05
42771;BME280;28426;42.872;25.314;2023-05-08T03:50:44;97090.78;;;10.48;63.29
42771;BME280;28426;42.872;25.314;2023-05-08T03:53:18;97096.56;;;10.52;65.03
42771;BME280;28426;42.872;25.314;2023-05-08T03:55:49;97087.22;;;10.93;64.78
42771;BME280;28426;42.872;25.314;2023-05-08T03:58:25;97095.16;;;11.67;63.64
42771;BME280;28426;42.872;25.314;2023-05-08T04:01:05;97093.69;;;12.43;61.42
42771;BME280;28426;42.872;25.314;2023-05-08T04:03:52;97090.44;;;13.10;59.14
42771;BME280;28426;42.872;25.314;2023-05-08T04:06:28;97095.13;;;13.64;57.58
42771;BME280;28426;42.872;25.314;2023-05-08T04:09:22;97097.00;;;14.04;55.57
42771;BME280;28426;42.872;25.314;2023-05-08T04:12:02;97098.22;;;14.28;54.94
42771;BME280;28426;42.872;25.314;2023-05-08T04:14:39;97097.94;;;14.43;54.44
42771;BME280;28426;42.872;25.314;2023-05-08T04:17:14;97100.41;;;14.51;53.97
42771;BME280;28426;42.872;25.314;2023-05-08T04:19:52;97095.03;;;14.51;53.69
42771;BME280;28426;42.872;25.314;2023-05-08T04:22:26;97107.66;;;14.51;53.42
42771;BME280;28426;42.872;25.314;2023-05-08T04:25:03;97101.69;;;14.42;53.81
42771;BME280;28426;42.872;25.314;2023-05-08T04:27:36;97100.06;;;14.28;53.75
42771;BME280;28426;42.872;25.314;2023-05-08T04:30:09;97102.56;;;14.16;54.15
42771;BME280;28426;42.872;25.314;2023-05-08T04:32:41;97100.91;;;14.08;54.49
42771;BME280;28426;42.872;25.314;2023-05-08T04:35:14;97093.47;;;14.10;54.70
42771;BME280;28426;42.872;25.314;2023-05-08T04:37:47;97089.94;;;14.16;54.59
42771;BME280;28426;42.872;25.314;2023-05-08T04:40:21;97084.16;;;14.19;54.33
42771;BME280;28426;42.872;25.314;2023-05-08T04:42:52;97088.69;;;14.19;54.68
42771;BME280;28426;42.872;25.314;2023-05-08T04:45:23;97088.50;;;14.20;54.70
42771;BME280;28426;42.872;25.314;2023-05-08T04:47:54;97082.50;;;14.25;55.04
42771;BME280;28426;42.872;25.314;2023-05-08T04:50:25;97083.09;;;14.34;54.96
42771;BME280;28426;42.872;25.314;2023-05-08T04:52:56;97075.47;;;14.44;55.05
42771;BME280;28426;42.872;25.314;2023-05-08T04:55:30;97081.00;;;14.56;54.75
42771;BME280;28426;42.872;25.314;2023-05-08T04:58:00;97076.84;;;14.67;54.41
42771;BME280;28426;42.872;25.314;2023-05-08T05:00:31;97083.81;;;14.82;54.32
42771;BME280;28426;42.872;25.314;2023-05-08T05:03:03;97076.28;;;15.04;54.73
42771;BME280;28426;42.872;25.314;2023-05-08T05:05:35;97076.09;;;15.38;53.95
42771;BME280;28426;42.872;25.314;2023-05-08T05:08:06;97078.50;;;15.78;52.87
42771;BME280;28426;42.872;25.314;2023-05-08T05:10:40;97071.38;;;16.16;52.17
42771;BME280;28426;42.872;25.314;2023-05-08T05:13:10;97074.63;;;16.63;51.39
42771;BME280;28426;42.872;25.314;2023-05-08T05:15:43;97079.09;;;17.06;50.66
42771;BME280;28426;42.872;25.314;2023-05-08T05:18:14;97073.16;;;17.47;49.53
42771;BME280;28426;42.872;25.314;2023-05-08T05:20:45;97078.03;;;17.81;48.41
42771;BME280;28426;42.872;25.314;2023-05-08T05:23:17;97072.31;;;18.01;47.64
42771;BME280;28426;42.872;25.314;2023-05-08T05:25:50;97072.13;;;18.14;46.73
42771;BME280;28426;42.872;25.314;2023-05-08T05:28:21;97066.47;;;18.28;46.44
42771;BME280;28426;42.872;25.314;2023-05-08T05:30:52;97058.81;;;18.37;46.41
42771;BME280;28426;42.872;25.314;2023-05-08T05:33:23;97059.75;;;18.42;45.82
42771;BME280;28426;42.872;25.314;2023-05-08T05:35:54;97066.78;;;18.43;46.37
42771;BME280;28426;42.872;25.314;2023-05-08T05:38:26;97063.41;;;18.36;46.08
42771;BME280;28426;42.872;25.314;2023-05-08T05:40:59;97058.13;;;18.29;45.75
42771;BME280;28426;42.872;25.314;2023-05-08T05:43:31;97054.50;;;18.24;46.08
42771;BME280;28426;42.872;25.314;2023-05-08T05:46:05;97055.19;;;18.19;46.42
42771;BME280;28426;42.872;25.314;2023-05-08T05:48:37;97054.97;;;18.09;47.04
42771;BME280;28426;42.872;25.314;2023-05-08T05:51:09;97051.88;;;18.05;46.86
42771;BME280;28426;42.872;25.314;2023-05-08T05:53:40;97059.72;;;18.07;46.76
42771;BME280;28426;42.872;25.314;2023-05-08T05:56:14;97050.41;;;18.09;46.80
42771;BME280;28426;42.872;25.314;2023-05-08T05:58:44;97046.16;;;18.13;46.92
42771;BME280;28426;42.872;25.314;2023-05-08T06:01:15;97047.31;;;18.17;47.15
42771;BME280;28426;42.872;25.314;2023-05-08T06:03:46;97048.13;;;18.30;47.29
42771;BME280;28426;42.872;25.314;2023-05-08T06:06:17;97044.94;;;18.45;46.84
42771;BME280;28426;42.872;25.314;2023-05-08T06:08:48;97049.41;;;18.63;46.59
42771;BME280;28426;42.872;25.314;2023-05-08T06:11:24;97045.78;;;18.87;46.18
42771;BME280;28426;42.872;25.314;2023-05-08T06:13:55;97047.84;;;19.08;45.78
42771;BME280;28426;42.872;25.314;2023-05-08T06:16:26;97040.13;;;19.29;45.74
42771;BME280;28426;42.872;25.314;2023-05-08T06:18:57;97034.97;;;19.45;45.38
42771;BME280;28426;42.872;25.314;2023-05-08T06:21:27;97033.03;;;19.57;45.90
42771;BME280;28426;42.872;25.314;2023-05-08T06:23:58;97036.13;;;19.66;45.52
42771;BME280;28426;42.872;25.314;2023-05-08T06:26:32;97038.91;;;19.71;44.79
42771;BME280;28426;42.872;25.314;2023-05-08T06:29:03;97038.44;;;19.74;44.31
42771;BME280;28426;42.872;25.314;2023-05-08T06:31:34;97035.16;;;19.72;44.58
42771;BME280;28426;42.872;25.314;2023-05-08T06:34:04;97032.22;;;19.74;45.04
42771;BME280;28426;42.872;25.314;2023-05-08T06:36:35;97027.75;;;19.85;44.99
42771;BME280;28426;42.872;25.314;2023-05-08T06:39:06;97025.41;;;20.06;44.93
42771;BME280;28426;42.872;25.314;2023-05-08T06:41:40;97027.41;;;20.33;44.38
42771;BME280;28426;42.872;25.314;2023-05-08T06:44:11;97021.16;;;20.77;44.10
42771;BME280;28426;42.872;25.314;2023-05-08T06:46:42;97025.81;;;21.26;42.64
42771;BME280;28426;42.872;25.314;2023-05-08T06:49:13;97025.06;;;21.69;42.37
42771;BME280;28426;42.872;25.314;2023-05-08T06:51:44;97020.38;;;21.92;40.93
42771;BME280;28426;42.872;25.314;2023-05-08T06:54:17;97018.59;;;22.08;40.66
42771;BME280;28426;42.872;25.314;2023-05-08T06:56:51;97016.53;;;22.31;39.83
42771;BME280;28426;42.872;25.314;2023-05-08T06:59:22;97012.81;;;22.47;39.89
42771;BME280;28426;42.872;25.314;2023-05-08T07:01:53;97013.94;;;22.52;39.07
42771;BME280;28426;42.872;25.314;2023-05-08T07:04:24;97017.22;;;22.54;39.19
42771;BME280;28426;42.872;25.314;2023-05-08T07:06:58;97015.41;;;22.70;39.54
42771;BME280;28426;42.872;25.314;2023-05-08T07:09:29;97007.31;;;22.91;38.87
42771;BME280;28426;42.872;25.314;2023-05-08T07:12:02;97011.44;;;23.14;38.36
42771;BME280;28426;42.872;25.314;2023-05-08T07:14:33;97012.88;;;23.37;37.70
42771;BME280;28426;42.872;25.314;2023-05-08T07:17:04;97004.16;;;23.67;37.25
42771;BME280;28426;42.872;25.314;2023-05-08T07:19:36;97002.78;;;24.00;37.39
42771;BME280;28426;42.872;25.314;2023-05-08T07:22:08;96999.16;;;24.41;36.28
42771;BME280;28426;42.872;25.314;2023-05-08T07:24:38;97003.38;;;24.84;35.25
42771;BME280;28426;42.872;25.314;2023-05-08T07:27:12;96993.84;;;25.27;34.06
42771;BME280;28426;42.872;25.314;2023-05-08T07:29:43;97001.81;;;25.63;33.08
42771;BME280;28426;42.872;25.314;2023-05-08T07:32:14;96998.06;;;25.83;32.32
42771;BME280;28426;42.872;25.314;2023-05-08T07:34:45;97002.53;;;26.04;31.98
42771;BME280;28426;42.872;25.314;2023-05-08T07:37:16;96999.69;;;26.14;31.48
42771;BME280;28426;42.872;25.314;2023-05-08T07:39:47;96996.88;;;26.19;31.32
42771;BME280;28426;42.872;25.314;2023-05-08T07:42:20;96994.38;;;26.23;30.51
42771;BME280;28426;42.872;25.314;2023-05-08T07:44:51;96999.19;;;26.36;31.22
42771;BME280;28426;42.872;25.314;2023-05-08T07:47:22;96997.41;;;26.51;30.41
42771;BME280;28426;42.872;25.314;2023-05-08T07:49:52;97001.19;;;26.74;29.67
42771;BME280;28426;42.872;25.314;2023-05-08T07:52:23;97002.72;;;26.86;30.18
42771;BME280;28426;42.872;25.314;2023-05-08T07:54:54;96989.78;;;26.92;29.73
42771;BME280;28426;42.872;25.314;2023-05-08T07:57:35;96998.66;;;27.02;29.67
42771;BME280;28426;42.872;25.314;2023-05-08T08:00:07;96991.19;;;27.27;28.37
42771;BME280;28426;42.872;25.314;2023-05-08T08:02:43;96994.13;;;27.50;27.73
42771;BME280;28426;42.872;25.314;2023-05-08T08:05:14;96990.78;;;27.73;26.74
42771;BME280;28426;42.872;25.314;2023-05-08T08:07:45;96981.56;;;27.83;26.20
42771;BME280;28426;42.872;25.314;2023-05-08T08:10:16;96979.25;;;27.90;26.41
42771;BME280;28426;42.872;25.314;2023-05-08T08:12:49;96996.09;;;27.83;25.75
42771;BME280;28426;42.872;25.314;2023-05-08T08:15:20;96981.59;;;27.63;25.94
42771;BME280;28426;42.872;25.314;2023-05-08T08:17:51;96985.03;;;27.55;25.53
42771;BME280;28426;42.872;25.314;2023-05-08T08:20:22;96985.63;;;27.52;25.88
42771;BME280;28426;42.872;25.314;2023-05-08T08:22:53;96982.03;;;27.51;24.87
42771;BME280;28426;42.872;25.314;2023-05-08T08:25:24;96978.72;;;27.54;26.38
42771;BME280;28426;42.872;25.314;2023-05-08T08:27:58;96985.50;;;27.76;25.59
42771;BME280;28426;42.872;25.314;2023-05-08T08:30:28;96977.09;;;27.87;25.45
42771;BME280;28426;42.872;25.314;2023-05-08T08:32:59;96969.31;;;27.94;25.27
42771;BME280;28426;42.872;25.314;2023-05-08T08:35:31;96965.44;;;27.95;24.52
42771;BME280;28426;42.872;25.314;2023-05-08T08:38:02;96969.69;;;28.01;24.25
42771;BME280;28426;42.872;25.314;2023-05-08T08:40:38;96969.53;;;28.12;24.82
42771;BME280;28426;42.872;25.314;2023-05-08T08:43:11;96967.28;;;28.14;25.50
42771;BME280;28426;42.872;25.314;2023-05-08T08:45:42;96968.50;;;28.07;26.46
42771;BME280;28426;42.872;25.314;2023-05-08T08:48:13;96974.09;;;28.16;26.81
42771;BME280;28426;42.872;25.314;2023-05-08T08:50:46;96975.66;;;28.37;27.32
42771;BME280;28426;42.872;25.314;2023-05-08T08:53:20;96970.78;;;28.62;26.46
42771;BME280;28426;42.872;25.314;2023-05-08T08:55:54;96972.44;;;28.85;27.01
42771;BME280;28426;42.872;25.314;2023-05-08T08:58:32;96969.47;;;29.10;26.73
42771;BME280;28426;42.872;25.314;2023-05-08T09:01:07;96962.06;;;29.33;26.38
42771;BME280;28426;42.872;25.314;2023-05-08T09:03:39;96973.56;;;29.58;26.40
42771;BME280;28426;42.872;25.314;2023-05-08T09:06:11;96970.63;;;29.78;25.28
42771;BME280;28426;42.872;25.314;2023-05-08T09:08:43;96974.09;;;29.92;24.78
42771;BME280;28426;42.872;25.314;2023-05-08T09:11:14;96968.31;;;30.02;25.22
42771;BME280;28426;42.872;25.314;2023-05-08T09:13:47;96960.41;;;30.10;23.20
42771;BME280;28426;42.872;25.314;2023-05-08T09:16:18;96958.81;;;30.09;24.44
42771;BME280;28426;42.872;25.314;2023-05-08T09:18:49;96965.44;;;30.08;24.41
42771;BME280;28426;42.872;25.314;2023-05-08T09:21:20;96964.75;;;30.02;24.25
42771;BME280;28426;42.872;25.314;2023-05-08T09:23:55;96961.19;;;30.01;24.80
42771;BME280;28426;42.872;25.314;2023-05-08T09:26:26;96961.50;;;30.00;24.71
42771;BME280;28426;42.872;25.314;2023-05-08T09:29:15;96959.53;;;29.92;23.83
42771;BME280;28426;42.872;25.314;2023-05-08T09:31:48;96956.28;;;29.89;24.25
42771;BME280;28426;42.872;25.314;2023-05-08T09:34:23;96957.72;;;29.87;23.60
42771;BME280;28426;42.872;25.314;2023-05-08T09:36:55;96949.25;;;29.74;23.60
42771;BME280;28426;42.872;25.314;2023-05-08T09:39:40;96948.25;;;29.70;24.91
42771;BME280;28426;42.872;25.314;2023-05-08T09:42:12;96943.94;;;29.78;25.68
42771;BME280;28426;42.872;25.314;2023-05-08T09:44:47;96940.91;;;29.88;25.21
42771;BME280;28426;42.872;25.314;2023-05-08T09:47:19;96940.16;;;29.97;25.08
42771;BME280;28426;42.872;25.314;2023-05-08T09:49:57;96941.25;;;29.96;24.22
42771;BME280;28426;42.872;25.314;2023-05-08T09:52:33;96946.75;;;29.96;23.90
42771;BME280;28426;42.872;25.314;2023-05-08T09:55:07;96932.03;;;29.92;24.08
42771;BME280;28426;42.872;25.314;2023-05-08T09:57:39;96932.84;;;29.92;24.73
42771;BME280;28426;42.872;25.314;2023-05-08T10:00:24;96934.34;;;29.98;24.57
42771;BME280;28426;42.872;25.314;2023-05-08T10:02:55;96924.97;;;30.08;23.43
42771;BME280;28426;42.872;25.314;2023-05-08T10:05:28;96915.66;;;30.27;25.01
42771;BME280;28426;42.872;25.314;2023-05-08T10:08:18;96913.00;;;30.53;23.71
42771;BME280;28426;42.872;25.314;2023-05-08T10:10:49;96916.44;;;30.77;23.82
42771;BME280;28426;42.872;25.314;2023-05-08T10:13:20;96913.72;;;31.03;23.67
42771;BME280;28426;42.872;25.314;2023-05-08T10:15:53;96908.97;;;31.22;22.49
42771;BME280;28426;42.872;25.314;2023-05-08T10:18:29;96915.50;;;31.35;22.56
42771;BME280;28426;42.872;25.314;2023-05-08T10:21:05;96905.25;;;31.44;22.65
42771;BME280;28426;42.872;25.314;2023-05-08T10:23:38;96908.47;;;31.55;22.52
42771;BME280;28426;42.872;25.314;2023-05-08T10:26:12;96905.06;;;31.49;21.43
42771;BME280;28426;42.872;25.314;2023-05-08T10:28:49;96906.88;;;31.45;21.15
42771;BME280;28426;42.872;25.314;2023-05-08T10:31:27;96906.88;;;31.45;21.88
42771;BME280;28426;42.872;25.314;2023-05-08T10:34:01;96901.34;;;31.45;21.99
42771;BME280;28426;42.872;25.314;2023-05-08T10:36:34;96907.84;;;31.49;21.99
42771;BME280;28426;42.872;25.314;2023-05-08T10:39:05;96908.47;;;31.55;21.59
42771;BME280;28426;42.872;25.314;2023-05-08T10:41:37;96909.78;;;31.57;21.14
42771;BME280;28426;42.872;25.314;2023-05-08T10:44:08;96915.78;;;31.51;23.23
42771;BME280;28426;42.872;25.314;2023-05-08T10:46:47;96916.44;;;31.30;23.92
42771;BME280;28426;42.872;25.314;2023-05-08T10:49:27;96923.75;;;30.99;24.24
42771;BME280;28426;42.872;25.314;2023-05-08T10:52:08;96924.50;;;30.64;24.41
42771;BME280;28426;42.872;25.314;2023-05-08T10:55:07;96927.88;;;30.03;24.46
42771;BME280;28426;42.872;25.314;2023-05-08T10:57:39;96926.53;;;29.37;25.45
42771;BME280;28426;42.872;25.314;2023-05-08T11:00:10;96921.41;;;28.84;25.39
42771;BME280;28426;42.872;25.314;2023-05-08T11:02:47;96928.28;;;28.31;26.33
42771;BME280;28426;42.872;25.314;2023-05-08T11:05:19;96921.78;;;27.85;26.79
42771;BME280;28426;42.872;25.314;2023-05-08T11:07:53;96920.56;;;27.58;27.86
42771;BME280;28426;42.872;25.314;2023-05-08T11:10:29;96914.38;;;27.52;28.09
42771;BME280;28426;42.872;25.314;2023-05-08T11:13:03;96912.94;;;27.54;28.01
42771;BME280;28426;42.872;25.314;2023-05-08T11:15:36;96907.03;;;27.47;27.76
42771;BME280;28426;42.872;25.314;2023-05-08T11:18:10;96919.69;;;27.29;27.91
42771;BME280;28426;42.872;25.314;2023-05-08T11:20:53;96914.00;;;27.06;28.42
42771;BME280;28426;42.872;25.314;2023-05-08T11:23:24;96910.00;;;26.79;28.83
42771;BME280;28426;42.872;25.314;2023-05-08T11:26:00;96909.03;;;26.50;29.40
42771;BME280;28426;42.872;25.314;2023-05-08T11:28:32;96918.69;;;26.18;29.54
42771;BME280;28426;42.872;25.314;2023-05-08T11:31:07;96918.16;;;25.92;29.95
42771;BME280;28426;42.872;25.314;2023-05-08T11:33:40;96924.09;;;25.75;30.34
42771;BME280;28426;42.872;25.314;2023-05-08T11:36:12;96910.34;;;25.50;30.77
42771;BME280;28426;42.872;25.314;2023-05-08T11:39:06;96914.13;;;25.25;31.48
42771;BME280;28426;42.872;25.314;2023-05-08T11:41:38;96915.91;;;25.05;32.18
42771;BME280;28426;42.872;25.314;2023-05-08T11:44:18;96921.75;;;24.88;31.92
42771;BME280;28426;42.872;25.314;2023-05-08T11:46:50;96921.53;;;24.74;32.26
42771;BME280;28426;42.872;25.314;2023-05-08T11:49:25;96927.31;;;24.67;32.90
42771;BME280;28426;42.872;25.314;2023-05-08T11:51:57;96921.59;;;24.63;33.52
42771;BME280;28426;42.872;25.314;2023-05-08T11:54:30;96922.97;;;24.61;32.92
42771;BME280;28426;42.872;25.314;2023-05-08T11:57:01;96930.88;;;24.62;33.39
42771;BME280;28426;42.872;25.314;2023-05-08T11:59:34;96930.06;;;24.62;33.24
42771;BME280;28426;42.872;25.314;2023-05-08T12:02:06;96930.88;;;24.62;33.00
42771;BME280;28426;42.872;25.314;2023-05-08T12:04:46;96941.78;;;24.62;33.81
42771;BME280;28426;42.872;25.314;2023-05-08T12:07:16;96944.25;;;24.59;33.49
42771;BME280;28426;42.872;25.314;2023-05-08T12:09:48;96951.63;;;24.58;33.51
42771;BME280;28426;42.872;25.314;2023-05-08T12:12:18;96950.53;;;24.54;33.57
42771;BME280;28426;42.872;25.314;2023-05-08T12:14:49;96951.69;;;24.48;33.54
42771;BME280;28426;42.872;25.314;2023-05-08T12:17:20;96955.22;;;24.43;33.73
42771;BME280;28426;42.872;25.314;2023-05-08T12:19:56;96956.91;;;24.34;34.18
42771;BME280;28426;42.872;25.314;2023-05-08T12:22:30;96964.31;;;24.23;34.00
42771;BME280;28426;42.872;25.314;2023-05-08T12:25:02;96970.91;;;24.11;33.77
42771;BME280;28426;42.872;25.314;2023-05-08T12:27:34;96985.59;;;24.00;34.78
42771;BME280;28426;42.872;25.314;2023-05-08T12:30:07;96979.91;;;23.86;34.56
42771;BME280;28426;42.872;25.314;2023-05-08T12:32:40;96993.25;;;23.72;35.26
42771;BME280;28426;42.872;25.314;2023-05-08T12:35:14;97000.88;;;23.59;35.74
42771;BME280;28426;42.872;25.314;2023-05-08T12:37:45;97019.44;;;23.47;35.43
42771;BME280;28426;42.872;25.314;2023-05-08T12:40:25;97031.38;;;23.35;36.25
42771;BME280;28426;42.872;25.314;2023-05-08T12:42:58;97031.34;;;23.20;36.07
42771;BME280;28426;42.872;25.314;2023-05-08T12:45:31;97055.00;;;23.09;36.70
42771;BME280;28426;42.872;25.314;2023-05-08T12:48:04;97062.28;;;22.93;37.23
42771;BME280;28426;42.872;25.314;2023-05-08T12:50:40;97062.19;;;22.72;38.17
42771;BME280;28426;42.872;25.314;2023-05-08T12:53:13;97078.47;;;22.62;39.71
42771;BME280;28426;42.872;25.314;2023-05-08T12:55:50;97093.31;;;22.48;40.11
42771;BME280;28426;42.872;25.314;2023-05-08T12:58:24;97092.41;;;22.38;41.41
42771;BME280;28426;42.872;25.314;2023-05-08T13:01:04;97099.41;;;22.23;42.01
42771;BME280;28426;42.872;25.314;2023-05-08T13:03:36;97103.41;;;22.10;41.48
42771;BME280;28426;42.872;25.314;2023-05-08T13:06:18;97106.81;;;21.95;42.54
42771;BME280;28426;42.872;25.314;2023-05-08T13:08:53;97107.19;;;21.76;41.28
42771;BME280;28426;42.872;25.314;2023-05-08T13:11:28;97112.91;;;21.52;42.38
42771;BME280;28426;42.872;25.314;2023-05-08T13:14:00;97105.78;;;21.19;43.58
42771;BME280;28426;42.872;25.314;2023-05-08T13:16:41;97116.47;;;20.86;45.27
42771;BME280;28426;42.872;25.314;2023-05-08T13:19:12;97125.25;;;20.54;46.02
42771;BME280;28426;42.872;25.314;2023-05-08T13:21:47;97117.75;;;20.21;47.28
42771;BME280;28426;42.872;25.314;2023-05-08T13:24:19;97123.78;;;19.94;49.25